createdAt,value
2018-09-25T00:01:58.899Z,1.03
2018-09-25T00:04:32.603Z,0.60
2018-09-25T00:07:06.235Z,0.77
2018-09-25T00:09:39.944Z,1.90
2018-09-25T00:12:13.655Z,1.10
2018-09-25T00:14:47.408Z,0.80
2018-09-25T00:17:21.166Z,0.87
2018-09-25T00:19:54.886Z,1.10
2018-09-25T00:22:28.590Z,1.40
2018-09-25T00:25:02.352Z,0.93
2018-09-25T00:27:35.996Z,0.90
2018-09-25T00:30:10.364Z,1.10
2018-09-25T00:32:43.968Z,1.47
2018-09-25T00:35:17.636Z,0.90
2018-09-25T00:37:51.211Z,1.00
2018-09-25T00:40:24.950Z,1.10
2018-09-25T00:42:58.610Z,1.10
2018-09-25T00:45:32.249Z,1.30
2018-09-25T00:48:05.736Z,1.13
2018-09-25T00:50:39.439Z,0.70
2018-09-25T00:53:13.138Z,1.40
2018-09-25T00:55:47.344Z,1.47
2018-09-25T00:58:21.092Z,1.17
2018-09-25T01:00:54.728Z,0.80
2018-09-25T01:03:28.600Z,1.00
2018-09-25T01:06:02.218Z,1.07
2018-09-25T01:08:35.904Z,1.00
2018-09-25T01:11:09.628Z,1.17
2018-09-25T01:13:43.346Z,0.93
2018-09-25T01:16:17.081Z,0.90
2018-09-25T01:18:50.810Z,1.10
2018-09-25T01:21:24.462Z,1.17
2018-09-25T01:23:58.505Z,1.13
2018-09-25T01:26:32.092Z,0.77
2018-09-25T01:29:05.837Z,1.40
2018-09-25T01:31:39.698Z,0.70
2018-09-25T01:34:13.456Z,1.07
2018-09-25T01:36:47.194Z,1.10
2018-09-25T01:39:20.908Z,1.17
2018-09-25T01:41:54.622Z,0.80
2018-09-25T01:44:28.257Z,0.83
2018-09-25T01:47:01.985Z,0.83
2018-09-25T01:49:35.739Z,1.00
2018-09-25T01:52:09.483Z,1.17
2018-09-25T01:54:43.318Z,0.70
2018-09-25T01:57:16.923Z,1.10
2018-09-25T01:59:50.595Z,0.90
2018-09-25T02:02:24.147Z,1.00
2018-09-25T02:04:57.858Z,0.83
2018-09-25T02:07:31.525Z,1.20
2018-09-25T02:10:05.239Z,1.10
2018-09-25T02:12:38.969Z,1.20
2018-09-25T02:15:12.832Z,1.17
2018-09-25T02:17:46.462Z,1.00
2018-09-25T02:20:20.188Z,1.00
2018-09-25T02:22:53.832Z,1.00
2018-09-25T02:25:27.472Z,0.90
2018-09-25T02:28:01.196Z,1.20
2018-09-25T02:30:34.900Z,0.90
2018-09-25T02:33:08.740Z,1.10
2018-09-25T02:35:42.327Z,1.20
2018-09-25T02:38:16.076Z,1.07
2018-09-25T02:40:49.686Z,0.80
2018-09-25T02:43:23.467Z,0.83
2018-09-25T02:45:57.215Z,1.30
2018-09-25T02:48:30.944Z,1.40
2018-09-25T02:51:04.512Z,1.57
2018-09-25T02:53:38.248Z,1.30
2018-09-25T02:56:11.920Z,1.60
2018-09-25T02:58:45.636Z,1.07
2018-09-25T03:01:19.350Z,1.40
2018-09-25T03:03:53.072Z,1.27
2018-09-25T03:06:26.786Z,1.50
2018-09-25T03:09:00.482Z,1.27
2018-09-25T03:11:34.393Z,1.17
2018-09-25T03:14:07.997Z,1.20
2018-09-25T03:16:41.548Z,1.43
2018-09-25T03:19:15.231Z,1.33
2018-09-25T03:21:48.916Z,1.50
2018-09-25T03:24:22.614Z,1.07
2018-09-25T03:26:56.248Z,1.00
2018-09-25T03:29:30.006Z,1.23
2018-09-25T03:32:03.675Z,1.33
2018-09-25T03:34:37.425Z,1.20
2018-09-25T03:37:11.089Z,1.10
2018-09-25T03:39:44.783Z,1.40
2018-09-25T03:42:18.548Z,1.97
2018-09-25T03:44:52.294Z,1.43
2018-09-25T03:47:25.996Z,1.43
2018-09-25T03:49:59.728Z,1.57
2018-09-25T03:52:33.841Z,1.37
2018-09-25T03:55:07.383Z,1.33
2018-09-25T03:57:41.095Z,1.30
2018-09-25T04:00:14.815Z,1.83
2018-09-25T04:02:48.755Z,1.60
2018-09-25T04:05:22.396Z,1.30
2018-09-25T04:07:56.366Z,1.50
2018-09-25T04:10:30.012Z,1.47
2018-09-25T04:13:03.520Z,1.30
2018-09-25T04:15:37.176Z,1.30
2018-09-25T04:18:10.864Z,1.40
2018-09-25T04:20:44.580Z,1.90
2018-09-25T04:23:18.282Z,1.40
2018-09-25T04:25:51.981Z,1.37
2018-09-25T04:28:25.724Z,1.47
2018-09-25T04:30:59.344Z,1.50
2018-09-25T04:33:32.906Z,1.60
2018-09-25T04:36:06.620Z,1.40
2018-09-25T04:38:40.497Z,2.13
2018-09-25T04:41:14.238Z,1.43
2018-09-25T04:43:47.925Z,1.70
2018-09-25T04:46:21.672Z,1.37
2018-09-25T04:48:55.676Z,1.50
2018-09-25T04:51:29.412Z,1.43
2018-09-25T04:54:03.094Z,1.70
2018-09-25T04:56:36.753Z,1.87
2018-09-25T04:59:10.355Z,1.83
2018-09-25T05:01:44.023Z,1.47
2018-09-25T05:04:17.693Z,1.70
2018-09-25T05:06:51.489Z,1.57
2018-09-25T05:09:25.219Z,1.10
2018-09-25T05:11:58.955Z,1.83
2018-09-25T05:14:32.642Z,1.70
2018-09-25T05:17:06.295Z,1.40
2018-09-25T05:19:40.080Z,1.40
2018-09-25T05:22:13.833Z,1.63
2018-09-25T05:24:47.644Z,1.43
2018-09-25T05:27:21.280Z,1.77
2018-09-25T05:29:54.975Z,1.63
2018-09-25T05:32:28.667Z,1.50
2018-09-25T05:35:02.395Z,1.47
2018-09-25T05:37:36.124Z,1.90
2018-09-25T05:40:09.770Z,1.70
2018-09-25T05:42:43.442Z,1.50
2018-09-25T05:45:17.128Z,1.83
2018-09-25T05:47:50.831Z,1.60
2018-09-25T05:50:24.411Z,1.63
2018-09-25T05:52:57.931Z,1.70
2018-09-25T05:55:31.660Z,1.87
2018-09-25T05:58:05.393Z,1.50
2018-09-25T06:00:39.164Z,2.10
2018-09-25T06:03:12.869Z,1.57
2018-09-25T06:05:46.462Z,1.40
2018-09-25T06:08:20.206Z,1.47
2018-09-25T06:10:53.824Z,2.30
2018-09-25T06:13:28.359Z,1.30
2018-09-25T06:16:02.474Z,1.53
2018-09-25T06:18:36.453Z,1.73
2018-09-25T06:21:10.741Z,1.50
2018-09-25T06:23:44.308Z,1.97
2018-09-25T06:26:18.022Z,1.40
2018-09-25T06:28:51.766Z,1.43
2018-09-25T06:31:25.426Z,1.70
2018-09-25T06:33:59.082Z,1.90
2018-09-25T06:36:33.299Z,1.70
2018-09-25T06:39:07.032Z,1.70
2018-09-25T06:41:40.772Z,1.67
2018-09-25T06:44:14.630Z,1.33
2018-09-25T06:46:48.275Z,1.63
2018-09-25T06:49:22.019Z,1.50
2018-09-25T06:51:55.765Z,4.37
2018-09-25T06:54:29.452Z,2.97
2018-09-25T06:57:03.095Z,1.43
2018-09-25T06:59:36.667Z,1.07
2018-09-25T07:02:10.227Z,1.90
2018-09-25T07:04:43.858Z,1.83
2018-09-25T07:07:17.522Z,1.40
2018-09-25T07:09:51.225Z,3.73
2018-09-25T07:12:24.907Z,4.33
2018-09-25T07:14:58.474Z,1.70
2018-09-25T07:17:32.220Z,1.30
2018-09-25T07:20:05.867Z,1.50
2018-09-25T07:22:39.644Z,2.20
2018-09-25T07:25:13.403Z,2.07
2018-09-25T07:27:46.859Z,1.50
2018-09-25T07:30:20.829Z,1.20
2018-09-25T07:32:54.641Z,1.20
2018-09-25T07:35:28.407Z,1.40
2018-09-25T07:38:02.007Z,1.60
2018-09-25T07:40:35.712Z,1.83
2018-09-25T07:43:09.335Z,1.40
2018-09-25T07:45:43.162Z,1.30
2018-09-25T07:48:16.962Z,1.23
2018-09-25T07:50:50.647Z,1.53
2018-09-25T07:53:24.187Z,1.90
2018-09-25T07:55:57.879Z,3.07
2018-09-25T07:58:31.451Z,2.07
2018-09-25T08:01:05.171Z,1.70
2018-09-25T08:03:39.050Z,1.63
2018-09-25T08:06:12.983Z,1.70
2018-09-25T08:08:46.669Z,1.60
2018-09-25T08:11:20.520Z,1.20
2018-09-25T08:13:54.117Z,1.87
2018-09-25T08:16:27.973Z,1.23
2018-09-25T08:19:01.688Z,1.20
2018-09-25T08:21:35.397Z,1.10
2018-09-25T08:24:09.092Z,1.40
2018-09-25T08:26:42.845Z,1.30
2018-09-25T08:29:16.895Z,1.20
2018-09-25T08:31:50.601Z,18.10
2018-09-25T08:34:24.396Z,1.37
2018-09-25T08:36:57.978Z,1.50
2018-09-25T08:39:31.651Z,1.20
2018-09-25T08:42:05.422Z,1.60
2018-09-25T08:44:39.038Z,2.50
2018-09-25T08:47:12.980Z,8.53
2018-09-25T08:49:46.740Z,1.30
2018-09-25T08:52:20.448Z,1.50
2018-09-25T08:54:55.078Z,1.83
2018-09-25T08:57:28.692Z,1.53
2018-09-25T09:00:02.445Z,1.17
2018-09-25T09:02:36.180Z,2.80
2018-09-25T09:05:09.851Z,2.87
2018-09-25T09:07:43.609Z,1.70
2018-09-25T09:10:17.313Z,1.70
2018-09-25T09:12:50.841Z,0.93
2018-09-25T09:15:24.555Z,1.30
2018-09-25T09:17:58.322Z,1.20
2018-09-25T09:20:32.072Z,1.10
2018-09-25T09:23:05.731Z,2.07
2018-09-25T09:25:39.372Z,1.23
2018-09-25T09:28:13.099Z,0.90
2018-09-25T09:30:46.653Z,1.03
2018-09-25T09:33:20.288Z,1.30
2018-09-25T09:35:53.911Z,1.10
2018-09-25T09:38:27.558Z,1.20
2018-09-25T09:41:01.364Z,1.13
2018-09-25T09:43:35.032Z,1.00
2018-09-25T09:46:08.837Z,1.00
2018-09-25T09:48:42.432Z,1.20
2018-09-25T09:51:16.155Z,1.13
2018-09-25T09:53:49.846Z,0.93
2018-09-25T09:56:23.597Z,1.23
2018-09-25T09:58:57.197Z,0.90
2018-09-25T10:01:30.941Z,0.93
2018-09-25T10:04:04.803Z,0.60
2018-09-25T10:06:38.572Z,1.23
2018-09-25T10:09:14.294Z,0.80
2018-09-25T10:11:48.349Z,0.80
2018-09-25T10:14:22.283Z,0.77
2018-09-25T10:16:55.879Z,1.20
2018-09-25T10:19:29.427Z,1.00
2018-09-25T10:22:03.099Z,1.07
2018-09-25T10:24:36.836Z,1.10
2018-09-25T10:27:10.809Z,1.03
2018-09-25T10:29:44.513Z,0.67
2018-09-25T10:32:18.168Z,0.70
2018-09-25T10:34:51.740Z,0.83
2018-09-25T10:37:25.341Z,1.20
2018-09-25T10:39:59.018Z,1.27
2018-09-25T10:42:32.696Z,1.87
2018-09-25T10:45:06.437Z,1.10
2018-09-25T10:47:40.118Z,1.00
2018-09-25T10:50:13.804Z,0.80
2018-09-25T10:52:47.554Z,0.70
2018-09-25T10:55:21.278Z,0.90
2018-09-25T10:57:54.804Z,7.53
2018-09-25T11:00:28.407Z,1.20
2018-09-25T11:03:02.300Z,0.87
2018-09-25T11:05:35.943Z,1.13
2018-09-25T11:08:09.703Z,1.10
2018-09-25T11:10:43.470Z,1.27
2018-09-25T11:13:18.535Z,1.00
2018-09-25T11:15:52.217Z,1.20
2018-09-25T11:18:25.915Z,0.90
2018-09-25T11:20:59.667Z,1.20
2018-09-25T11:23:33.319Z,0.87
2018-09-25T11:26:07.747Z,1.10
2018-09-25T11:28:42.071Z,0.83
2018-09-25T11:31:15.827Z,0.97
2018-09-25T11:33:49.533Z,0.70
2018-09-25T11:36:23.220Z,0.60
2018-09-25T11:38:56.956Z,0.80
2018-09-25T11:41:30.602Z,0.60
2018-09-25T11:44:04.244Z,0.83
2018-09-25T11:46:38.050Z,0.70
2018-09-25T11:49:11.726Z,0.73
2018-09-25T11:51:45.444Z,0.70
2018-09-25T11:54:19.102Z,0.80
2018-09-25T11:56:52.732Z,1.23
2018-09-25T11:59:26.352Z,1.10
2018-09-25T12:02:00.127Z,0.90
2018-09-25T12:04:33.743Z,0.70
2018-09-25T12:07:07.462Z,0.73
2018-09-25T12:09:40.966Z,0.83
2018-09-25T12:12:14.764Z,1.00
2018-09-25T12:14:48.388Z,1.00
2018-09-25T12:17:22.098Z,0.60
2018-09-25T12:19:55.707Z,0.93
2018-09-25T12:22:29.302Z,0.77
2018-09-25T12:25:02.784Z,0.90
2018-09-25T12:27:36.716Z,1.10
2018-09-25T12:30:10.833Z,0.70
2018-09-25T12:32:44.568Z,0.93
2018-09-25T12:35:18.288Z,0.90
2018-09-25T12:37:51.982Z,0.60
2018-09-25T12:40:25.548Z,0.70
2018-09-25T12:42:59.279Z,0.50
2018-09-25T12:45:32.882Z,0.80
2018-09-25T12:48:06.545Z,0.73
2018-09-25T12:50:40.157Z,1.00
2018-09-25T12:53:13.844Z,0.60
2018-09-25T12:55:47.554Z,0.83
2018-09-25T12:58:21.306Z,0.57
2018-09-25T13:00:55.041Z,0.50
2018-09-25T13:03:28.788Z,0.77
2018-09-25T13:06:02.552Z,0.80
2018-09-25T13:08:36.268Z,0.77
2018-09-25T13:11:10.008Z,1.67
2018-09-25T13:13:43.780Z,0.90
2018-09-25T13:16:17.314Z,0.90
2018-09-25T13:18:51.073Z,1.00
2018-09-25T13:21:24.731Z,1.20
2018-09-25T13:23:58.586Z,1.00
2018-09-25T13:26:32.156Z,1.00
2018-09-25T13:29:05.816Z,0.83
2018-09-25T13:31:39.456Z,0.90
2018-09-25T13:34:13.007Z,0.77
2018-09-25T13:36:46.753Z,0.87
2018-09-25T13:39:20.399Z,0.80
2018-09-25T13:41:54.135Z,0.70
2018-09-25T13:44:27.943Z,1.00
2018-09-25T13:47:01.616Z,0.73
2018-09-25T13:49:35.353Z,0.90
2018-09-25T13:52:09.077Z,0.87
2018-09-25T13:54:42.800Z,0.80
2018-09-25T13:57:16.436Z,0.90
2018-09-25T13:59:50.164Z,1.40
2018-09-25T14:02:23.813Z,4.10
2018-09-25T14:04:57.544Z,1.10
2018-09-25T14:07:31.127Z,0.90
2018-09-25T14:10:04.636Z,0.77
2018-09-25T14:12:38.220Z,0.67
2018-09-25T14:15:12.121Z,0.80
2018-09-25T14:17:45.921Z,0.70
2018-09-25T14:20:19.564Z,0.80
2018-09-25T14:22:53.150Z,0.83
2018-09-25T14:25:26.796Z,0.70
2018-09-25T14:28:00.942Z,0.60
2018-09-25T14:30:34.699Z,1.03
2018-09-25T14:33:08.460Z,0.50
2018-09-25T14:35:42.176Z,0.50
2018-09-25T14:38:15.843Z,1.23
2018-09-25T14:40:49.471Z,1.30
2018-09-25T14:43:23.134Z,0.63
2018-09-25T14:45:57.023Z,0.77
2018-09-25T14:48:30.782Z,0.60
2018-09-25T14:51:04.485Z,0.80
2018-09-25T14:53:38.250Z,0.50
2018-09-25T14:56:11.842Z,0.80
2018-09-25T14:58:45.451Z,0.50
2018-09-25T15:01:19.100Z,0.53
2018-09-25T15:03:52.661Z,0.70
2018-09-25T15:06:26.347Z,0.60
2018-09-25T15:09:00.148Z,0.93
2018-09-25T15:11:33.937Z,0.80
2018-09-25T15:14:07.529Z,0.53
2018-09-25T15:16:41.124Z,0.73
2018-09-25T15:19:14.635Z,0.67
2018-09-25T15:21:48.555Z,0.73
2018-09-25T15:24:22.044Z,0.80
2018-09-25T15:26:56.440Z,7.10
2018-09-25T15:29:29.999Z,1.67
2018-09-25T15:32:03.661Z,0.90
2018-09-25T15:34:37.387Z,0.53
2018-09-25T15:37:11.088Z,0.60
2018-09-25T15:39:44.841Z,1.20
2018-09-25T15:42:18.391Z,0.90
2018-09-25T15:44:52.130Z,1.00
2018-09-25T15:47:26.587Z,4.10
2018-09-25T15:50:00.893Z,1.13
2018-09-25T15:52:34.767Z,3.23
2018-09-25T15:55:08.471Z,0.87
2018-09-25T15:57:42.219Z,0.60
2018-09-25T16:00:15.902Z,0.40
2018-09-25T16:02:49.652Z,0.63
2018-09-25T16:05:23.360Z,0.90
2018-09-25T16:07:57.104Z,0.60
2018-09-25T16:10:31.548Z,1.70
2018-09-25T16:13:05.327Z,3.50
2018-09-25T16:15:39.024Z,0.77
2018-09-25T16:18:12.809Z,0.93
2018-09-25T16:20:48.037Z,0.70
2018-09-25T16:23:21.692Z,0.60
2018-09-25T16:25:55.348Z,0.80
2018-09-25T16:28:29.792Z,0.93
2018-09-25T16:31:03.560Z,0.80
2018-09-25T16:33:37.287Z,0.70
2018-09-25T16:36:11.044Z,0.90
2018-09-25T16:38:44.776Z,0.80
2018-09-25T16:41:18.467Z,1.00
2018-09-25T16:43:52.248Z,0.50
2018-09-25T16:46:26.109Z,0.90
2018-09-25T16:48:59.697Z,1.23
2018-09-25T16:51:33.480Z,1.03
2018-09-25T16:54:07.018Z,1.37
2018-09-25T16:56:40.740Z,1.40
2018-09-25T16:59:14.456Z,1.10
2018-09-25T17:01:48.751Z,0.90
2018-09-25T17:04:22.440Z,0.60
2018-09-25T17:07:03.249Z,1.00
2018-09-25T17:09:36.993Z,1.40
2018-09-25T17:12:12.532Z,1.03
2018-09-25T17:14:46.220Z,0.90
2018-09-25T17:17:19.925Z,0.90
2018-09-25T17:19:53.687Z,1.20
2018-09-25T17:22:28.113Z,1.27
2018-09-25T17:25:02.251Z,1.30
2018-09-25T17:27:35.822Z,1.13
2018-09-25T17:30:09.891Z,1.27
2018-09-25T17:32:43.521Z,1.07
2018-09-25T17:35:17.187Z,1.30
2018-09-25T17:37:50.879Z,1.27
2018-09-25T17:40:24.730Z,1.40
2018-09-25T17:42:58.522Z,1.20
2018-09-25T17:45:32.252Z,1.30
2018-09-25T17:48:05.979Z,1.50
2018-09-25T17:50:39.751Z,1.50
2018-09-25T17:53:13.269Z,1.23
2018-09-25T17:55:47.054Z,1.20
2018-09-25T17:58:20.880Z,1.07
2018-09-25T18:00:54.668Z,1.37
2018-09-25T18:03:28.324Z,1.20
2018-09-25T18:06:02.813Z,1.40
2018-09-25T18:08:36.451Z,3.07
2018-09-25T18:11:10.233Z,3.20
2018-09-25T18:13:43.883Z,2.50
2018-09-25T18:16:17.600Z,2.53
2018-09-25T18:18:51.351Z,2.80
2018-09-25T18:21:25.153Z,3.33
2018-09-25T18:23:58.938Z,2.67
2018-09-25T18:26:32.639Z,3.33
2018-09-25T18:29:06.448Z,3.60
2018-09-25T18:31:40.112Z,3.77
2018-09-25T18:34:14.460Z,3.33
2018-09-25T18:36:48.297Z,3.80
2018-09-25T18:39:21.929Z,4.63
2018-09-25T18:41:55.744Z,6.00
2018-09-25T18:44:29.456Z,4.83
2018-09-25T18:47:03.559Z,4.63
2018-09-25T18:49:41.993Z,4.00
2018-09-25T18:52:15.674Z,4.07
2018-09-25T18:54:49.493Z,5.27
2018-09-25T18:57:23.225Z,6.83
2018-09-25T18:59:56.948Z,5.87
2018-09-25T19:02:30.696Z,3.70
2018-09-25T19:05:04.386Z,3.67
2018-09-25T19:07:37.989Z,3.70
2018-09-25T19:10:11.729Z,3.87
2018-09-25T19:12:45.392Z,4.07
2018-09-25T19:15:19.068Z,4.07
2018-09-25T19:17:52.708Z,3.70
2018-09-25T19:20:26.419Z,4.10
2018-09-25T19:23:00.123Z,5.47
2018-09-25T19:25:34.336Z,4.20
2018-09-25T19:28:08.137Z,4.30
2018-09-25T19:30:41.711Z,4.10
2018-09-25T19:33:15.428Z,3.67
2018-09-25T19:35:49.043Z,5.17
2018-09-25T19:38:22.676Z,6.30
2018-09-25T19:40:56.468Z,4.50
2018-09-25T19:43:30.047Z,4.23
2018-09-25T19:46:03.823Z,4.30
2018-09-25T19:48:37.572Z,3.87
2018-09-25T19:51:11.220Z,4.20
2018-09-25T19:53:44.976Z,3.47
2018-09-25T19:56:18.801Z,4.33
2018-09-25T19:58:52.454Z,6.10
2018-09-25T20:01:26.197Z,4.60
2018-09-25T20:03:59.849Z,4.00
2018-09-25T20:06:33.599Z,4.30
2018-09-25T20:09:07.706Z,4.53
2018-09-25T20:11:41.598Z,3.87
2018-09-25T20:14:16.121Z,4.07
2018-09-25T20:16:49.668Z,4.47
2018-09-25T20:19:23.373Z,3.70
2018-09-25T20:21:56.976Z,4.23
2018-09-25T20:24:30.524Z,3.53
2018-09-25T20:27:04.530Z,3.13
2018-09-25T20:29:38.180Z,4.17
2018-09-25T20:32:12.298Z,4.57
2018-09-25T20:34:45.965Z,4.10
2018-09-25T20:37:19.634Z,4.20
2018-09-25T20:39:53.539Z,4.23
2018-09-25T20:42:27.224Z,3.53
2018-09-25T20:45:00.932Z,3.47
2018-09-25T20:47:34.667Z,3.33
2018-09-25T20:50:08.436Z,3.10
2018-09-25T20:52:42.196Z,3.17
2018-09-25T20:55:16.010Z,3.67
2018-09-25T20:57:49.539Z,4.07
2018-09-25T21:00:23.248Z,3.40
2018-09-25T21:02:57.139Z,4.13
2018-09-25T21:05:30.842Z,3.40
2018-09-25T21:08:04.449Z,3.93
2018-09-25T21:10:38.393Z,3.93
2018-09-25T21:13:12.282Z,3.50
2018-09-25T21:15:46.159Z,3.27
2018-09-25T21:18:20.186Z,3.50
2018-09-25T21:20:54.348Z,3.13
2018-09-25T21:23:27.957Z,3.50
2018-09-25T21:26:01.570Z,3.80
2018-09-25T21:28:35.194Z,3.70
2018-09-25T21:31:08.856Z,3.63
2018-09-25T21:33:42.459Z,3.27
2018-09-25T21:36:16.412Z,4.13
2018-09-25T21:38:50.386Z,3.70
2018-09-25T21:41:23.946Z,3.97
2018-09-25T21:43:57.488Z,3.30
2018-09-25T21:46:31.196Z,3.83
2018-09-25T21:49:04.897Z,3.90
2018-09-25T21:51:38.932Z,3.60
2018-09-25T21:54:12.435Z,3.33
2018-09-25T21:56:46.134Z,3.83
2018-09-25T21:59:19.882Z,4.10
2018-09-25T22:01:53.610Z,4.03
2018-09-25T22:04:27.310Z,3.70
2018-09-25T22:07:01.105Z,3.53
2018-09-25T22:09:41.345Z,3.47
2018-09-25T22:12:15.065Z,3.67
2018-09-25T22:14:48.827Z,3.53
2018-09-25T22:17:22.502Z,3.27
2018-09-25T22:19:56.203Z,4.07
2018-09-25T22:22:29.955Z,3.80
2018-09-25T22:25:04.015Z,3.57
2018-09-25T22:27:37.836Z,3.87
2018-09-25T22:30:11.983Z,3.93
2018-09-25T22:32:45.667Z,3.73
2018-09-25T22:35:19.344Z,4.13
2018-09-25T22:37:53.128Z,3.80
2018-09-25T22:40:26.782Z,3.57
2018-09-25T22:43:00.592Z,3.73
2018-09-25T22:45:34.311Z,3.70
2018-09-25T22:48:08.036Z,3.90
2018-09-25T22:50:41.628Z,4.37
2018-09-25T22:53:15.708Z,3.60
2018-09-25T22:55:49.440Z,3.23
2018-09-25T22:58:23.114Z,3.47
2018-09-25T23:00:56.966Z,3.23
2018-09-25T23:03:30.612Z,3.53
2018-09-25T23:06:04.160Z,3.40
2018-09-25T23:08:37.893Z,3.33
2018-09-25T23:11:11.816Z,3.50
2018-09-25T23:13:45.880Z,3.10
2018-09-25T23:16:19.370Z,3.67
2018-09-25T23:18:53.123Z,3.40
2018-09-25T23:21:26.708Z,3.57
2018-09-25T23:24:01.049Z,3.40
2018-09-25T23:26:34.932Z,3.57
2018-09-25T23:29:08.572Z,3.20
2018-09-25T23:31:42.092Z,3.07
2018-09-25T23:34:16.095Z,3.20
2018-09-25T23:36:49.863Z,3.13
2018-09-25T23:39:23.496Z,3.77
2018-09-25T23:44:01.924Z,3.30
2018-09-25T23:46:42.757Z,3.47
2018-09-25T23:49:16.592Z,2.90
2018-09-25T23:51:54.616Z,2.93
2018-09-25T23:54:30.146Z,3.23
2018-09-25T23:57:10.912Z,2.63
